Saint Louis, Missouri
Current Conditions -  °F | °C
As of 12:53 AM on Sunday 23 Nov 2014 (Local Time) from KCPS Reporting Station
Overcast Overcast  
Wind Chill: 55°   Ceiling: 10000
Heat Index: 55°   Visibility: 10mi
Dew Point: 45°   Wind: 6mph
Humidity: 69%   Direction: 170°S
Pressure: 29.85"   Gusts: NA
Location:  38.63°N, 90.24°W
Report Text: KCPS 230653Z AUTO 17005KT 10SM OVC100 13/07 A2985 RMK AO2 SLP106 T01280072 TSNO
Loading
Personal Weather Stations






























Interactive Weather Map New forecast layout! Learn more

10-Day Weather Forecast

Advertisements
Track Severe Weather on mobile